Terminal Aerodrome Forecast
Issued by NWS

Current Version | Previous Version | Text Only | Print | Product List | Glossary On
Versions: 1 2 3 4 5 6 7 8 9 10 11 12 13 14 15 16 17 18
000
FTUS43 KGRB 220949 AAB
TAFRHI
TAF AMD
KRHI 220949Z 2210/2306 00000KT P6SM BKN015 OVC040
      TEMPO 2210/2213 SCT015 OVC040
     FM221300 VRB03KT P6SM BKN013
     FM221400 32003KT P6SM SCT070
     FM222000 29003KT P6SM SCT150=

USA.gov is the U.S. government's official web portal to all federal, state and local government web resources and services.